createdAt,value
2022-10-08T00:03:29.954Z,15.27
2022-10-08T00:08:23.648Z,15.23
2022-10-08T00:13:16.987Z,14.30
2022-10-08T00:18:10.307Z,17.37
2022-10-08T00:23:05.015Z,15.53
2022-10-08T00:27:58.223Z,15.90
2022-10-08T00:32:51.470Z,16.30
2022-10-08T00:37:44.715Z,14.17
2022-10-08T00:42:41.475Z,13.97
2022-10-08T00:47:45.426Z,15.50
2022-10-08T00:52:45.021Z,15.67
2022-10-08T00:57:41.454Z,19.23
2022-10-08T01:02:34.706Z,20.53
2022-10-08T01:07:38.108Z,21.60
2022-10-08T01:12:47.916Z,20.10
2022-10-08T01:17:55.646Z,23.37
2022-10-08T01:23:25.015Z,21.40
2022-10-08T01:28:29.354Z,23.77
2022-10-08T01:33:30.588Z,20.63
2022-10-08T01:38:30.381Z,24.03
2022-10-08T01:43:30.326Z,24.47
2022-10-08T01:48:29.679Z,22.93
2022-10-08T01:53:31.034Z,21.03
2022-10-08T01:58:32.581Z,20.77
2022-10-08T02:03:25.918Z,23.63
2022-10-08T02:08:19.781Z,20.67
2022-10-08T02:13:14.304Z,21.10
2022-10-08T02:18:18.419Z,19.60
2022-10-08T02:23:22.223Z,22.23
2022-10-08T02:28:28.211Z,23.73
2022-10-08T02:33:31.330Z,21.75
2022-10-08T02:38:34.148Z,21.97
2022-10-08T02:43:32.948Z,22.40
2022-10-08T02:48:32.355Z,22.10
2022-10-08T02:53:26.730Z,21.17
2022-10-08T02:58:20.406Z,23.47
2022-10-08T03:03:22.204Z,23.07
2022-10-08T03:08:18.257Z,22.57
2022-10-08T03:13:13.757Z,25.13
2022-10-08T03:18:12.523Z,24.57
2022-10-08T03:23:05.902Z,24.37
2022-10-08T03:28:00.529Z,25.27
2022-10-08T03:32:53.836Z,26.80
2022-10-08T03:37:47.065Z,25.53
2022-10-08T03:42:40.358Z,25.17
2022-10-08T03:47:34.938Z,22.83
2022-10-08T03:52:28.233Z,24.63
2022-10-08T03:57:21.517Z,25.43
2022-10-08T04:02:14.846Z,24.07
2022-10-08T04:07:09.611Z,25.07
2022-10-08T04:12:02.844Z,22.40
2022-10-08T04:16:56.277Z,22.00
2022-10-08T04:21:49.571Z,25.40
2022-10-08T04:26:44.148Z,23.63
2022-10-08T04:31:37.556Z,24.23
2022-10-08T04:36:30.860Z,25.70
2022-10-08T04:41:27.287Z,24.87
2022-10-08T04:46:23.648Z,23.17
2022-10-08T04:51:18.347Z,25.90
2022-10-08T04:56:15.676Z,27.77
2022-10-08T05:01:13.501Z,27.33
2022-10-08T05:06:09.008Z,25.73
2022-10-08T05:11:02.353Z,25.20
2022-10-08T05:15:55.760Z,26.97
2022-10-08T05:20:49.155Z,25.90
2022-10-08T05:25:43.963Z,29.57
2022-10-08T05:30:37.318Z,28.27
2022-10-08T05:35:30.665Z,27.93
2022-10-08T05:40:24.317Z,29.27
2022-10-08T05:45:19.197Z,29.47
2022-10-08T05:50:12.480Z,29.17
2022-10-08T05:55:06.938Z,29.63
2022-10-08T06:00:00.256Z,33.00
2022-10-08T06:04:54.962Z,33.83
2022-10-08T06:09:48.284Z,31.60
2022-10-08T06:14:41.783Z,32.40
2022-10-08T06:19:37.426Z,25.50
2022-10-08T06:24:32.272Z,27.43
2022-10-08T06:29:25.657Z,27.63
2022-10-08T06:34:19.081Z,24.20
2022-10-08T06:39:15.333Z,24.13
2022-10-08T06:44:14.208Z,21.87
2022-10-08T06:49:07.809Z,25.10
2022-10-08T06:54:07.363Z,22.80
2022-10-08T06:59:01.443Z,23.67
2022-10-08T07:03:58.623Z,25.70
2022-10-08T07:08:54.883Z,23.92
2022-10-08T07:13:48.647Z,25.13
2022-10-08T07:18:43.255Z,26.80
2022-10-08T07:23:37.966Z,22.50
2022-10-08T07:28:34.938Z,26.23
2022-10-08T07:33:30.696Z,23.52
2022-10-08T07:38:24.051Z,29.33
2022-10-08T07:43:19.870Z,28.37
2022-10-08T07:48:13.564Z,26.90
2022-10-08T07:53:06.862Z,25.60
2022-10-08T07:58:00.075Z,28.73
2022-10-08T08:02:54.828Z,27.45
2022-10-08T08:07:53.027Z,27.25
2022-10-08T08:12:46.715Z,27.48
2022-10-08T08:17:40.203Z,28.20
2022-10-08T08:22:34.967Z,28.92
2022-10-08T08:27:28.241Z,26.48
2022-10-08T08:32:26.124Z,29.23
2022-10-08T08:37:21.591Z,29.67
2022-10-08T08:42:47.940Z,29.03
2022-10-08T08:47:50.274Z,24.17
2022-10-08T08:52:45.883Z,25.53
2022-10-08T08:57:51.926Z,28.07
2022-10-08T09:02:57.390Z,24.97
2022-10-08T09:07:59.277Z,27.13
2022-10-08T09:12:56.745Z,25.85
2022-10-08T09:17:53.292Z,28.13
2022-10-08T09:22:47.450Z,27.27
2022-10-08T09:27:54.190Z,28.85
2022-10-08T09:32:50.280Z,33.05
2022-10-08T09:37:48.337Z,33.75
2022-10-08T09:42:41.671Z,29.27
2022-10-08T09:47:34.988Z,29.63
2022-10-08T09:52:30.625Z,31.42
2022-10-08T09:57:24.678Z,29.80
2022-10-08T10:02:30.947Z,30.40
2022-10-08T10:07:25.417Z,29.48
2022-10-08T10:12:32.487Z,29.83
2022-10-08T10:17:39.064Z,25.05
2022-10-08T10:22:43.236Z,27.20
2022-10-08T10:27:45.341Z,26.13
2022-10-08T10:32:45.888Z,30.38
2022-10-08T10:37:48.901Z,28.27
2022-10-08T10:42:56.035Z,28.33
2022-10-08T10:47:51.719Z,24.98
2022-10-08T10:53:01.667Z,25.33
2022-10-08T10:58:17.542Z,25.20
2022-10-08T11:03:23.110Z,23.08
2022-10-08T11:08:32.006Z,24.48
2022-10-08T11:13:49.888Z,20.60
2022-10-08T11:18:53.718Z,21.02
2022-10-08T11:24:10.050Z,18.83
2022-10-08T11:29:17.293Z,17.38
2022-10-08T11:34:25.123Z,16.02
2022-10-08T11:39:28.204Z,17.50
2022-10-08T11:44:23.877Z,16.45
2022-10-08T11:49:52.362Z,17.15
2022-10-08T11:54:55.746Z,19.00
2022-10-08T12:00:06.916Z,18.55
2022-10-08T12:05:38.821Z,18.20
2022-10-08T12:10:36.796Z,19.30
2022-10-08T12:16:10.990Z,19.55
2022-10-08T12:21:52.863Z,16.45
2022-10-08T12:27:23.189Z,18.40
2022-10-08T12:32:17.892Z,16.05
2022-10-08T12:37:41.770Z,17.70
2022-10-08T12:42:39.314Z,15.88
2022-10-08T12:47:48.801Z,14.30
2022-10-08T12:52:42.514Z,14.77
2022-10-08T12:57:40.572Z,16.52
2022-10-08T13:02:39.999Z,17.20
2022-10-08T13:07:36.359Z,16.75
2022-10-08T13:12:29.848Z,15.00
2022-10-08T13:17:30.860Z,16.48
2022-10-08T13:22:27.782Z,15.68
2022-10-08T13:27:27.256Z,13.70
2022-10-08T13:32:24.013Z,13.38
2022-10-08T13:37:29.770Z,13.43
2022-10-08T13:42:27.019Z,10.05
2022-10-08T13:47:23.470Z,9.90
2022-10-08T13:52:19.839Z,8.38
2022-10-08T13:57:14.887Z,6.63
2022-10-08T14:02:08.542Z,6.43
2022-10-08T14:07:03.843Z,6.25
2022-10-08T14:12:01.205Z,6.32
2022-10-08T14:16:56.066Z,6.15
2022-10-08T14:21:51.180Z,5.45
2022-10-08T14:26:44.558Z,6.28
2022-10-08T14:31:37.997Z,5.07
2022-10-08T14:36:36.939Z,5.63
2022-10-08T14:41:30.182Z,5.00
2022-10-08T14:46:23.818Z,5.70
2022-10-08T14:51:17.099Z,5.20
2022-10-08T14:56:12.943Z,5.07
2022-10-08T15:01:06.657Z,4.72
2022-10-08T15:06:01.413Z,4.68
2022-10-08T15:10:54.779Z,4.68
2022-10-08T15:15:49.359Z,4.47
2022-10-08T15:20:43.127Z,4.80
2022-10-08T15:25:36.433Z,5.35
2022-10-08T15:30:29.649Z,4.95
2022-10-08T15:35:24.383Z,5.10
2022-10-08T15:40:17.781Z,5.25
2022-10-08T15:45:11.374Z,4.88
2022-10-08T15:50:05.348Z,4.88
2022-10-08T15:54:59.992Z,4.53
2022-10-08T15:59:53.674Z,4.95
2022-10-08T16:04:48.239Z,4.43
2022-10-08T16:09:41.567Z,5.50
2022-10-08T16:14:36.532Z,4.78
2022-10-08T16:19:30.173Z,5.57
2022-10-08T16:24:24.494Z,5.13
2022-10-08T16:29:19.850Z,5.10
2022-10-08T16:34:18.136Z,5.13
2022-10-08T16:39:14.501Z,5.43
2022-10-08T16:44:12.562Z,5.53
2022-10-08T16:49:09.918Z,5.47
2022-10-08T16:54:07.708Z,5.60
2022-10-08T16:59:03.699Z,5.22
2022-10-08T17:03:57.638Z,7.05
2022-10-08T17:08:52.441Z,6.60
2022-10-08T17:13:50.239Z,5.88
2022-10-08T17:18:44.358Z,5.85
2022-10-08T17:23:38.360Z,5.60
2022-10-08T17:28:34.874Z,5.38
2022-10-08T17:33:35.307Z,5.88
2022-10-08T17:38:29.458Z,6.75
2022-10-08T17:43:23.077Z,5.72
2022-10-08T17:48:16.422Z,5.95
2022-10-08T17:53:11.206Z,5.97
2022-10-08T17:58:04.633Z,6.15
2022-10-08T18:02:57.996Z,6.00
2022-10-08T18:07:51.274Z,7.13
2022-10-08T18:12:46.298Z,6.43
2022-10-08T18:17:40.075Z,7.25
2022-10-08T18:22:33.361Z,6.50
2022-10-08T18:27:26.641Z,6.60
2022-10-08T18:32:21.386Z,6.00
2022-10-08T18:37:14.626Z,5.85
2022-10-08T18:42:07.906Z,5.72
2022-10-08T18:47:05.219Z,5.80
2022-10-08T18:52:01.550Z,5.90
2022-10-08T18:56:56.686Z,6.13
2022-10-08T19:01:50.399Z,7.00
2022-10-08T19:06:47.749Z,7.53
2022-10-08T19:11:45.421Z,7.13
2022-10-08T19:16:40.237Z,6.25
2022-10-08T19:21:38.605Z,6.30
2022-10-08T19:26:31.850Z,6.88
2022-10-08T19:31:29.927Z,6.53
2022-10-08T19:36:25.794Z,6.43
2022-10-08T19:41:19.069Z,6.72
2022-10-08T19:46:12.405Z,6.38
2022-10-08T19:51:10.474Z,5.63
2022-10-08T19:56:08.201Z,5.05
2022-10-08T20:01:02.928Z,6.25
2022-10-08T20:05:56.444Z,5.80
2022-10-08T20:10:51.139Z,6.20
2022-10-08T20:15:48.970Z,6.25
2022-10-08T20:20:44.501Z,5.78
2022-10-08T20:25:37.809Z,5.15
2022-10-08T20:30:32.440Z,4.38
2022-10-08T20:35:25.684Z,3.47
2022-10-08T20:40:18.943Z,3.40
2022-10-08T20:45:12.954Z,3.50
2022-10-08T20:50:08.647Z,3.22
2022-10-08T20:55:01.940Z,2.92
2022-10-08T20:59:56.884Z,3.10
2022-10-08T21:04:50.155Z,3.33
2022-10-08T21:09:44.890Z,3.20
2022-10-08T21:14:38.152Z,2.75
2022-10-08T21:19:31.348Z,3.05
2022-10-08T21:25:54.044Z,2.38
2022-10-08T21:31:04.163Z,2.63
2022-10-08T21:35:58.856Z,2.53
2022-10-08T21:40:56.511Z,2.50
2022-10-08T21:45:56.693Z,2.05
2022-10-08T21:50:58.501Z,2.20
2022-10-08T21:55:59.966Z,1.88
2022-10-08T22:00:53.371Z,1.73
2022-10-08T22:05:58.041Z,1.87
2022-10-08T22:10:52.191Z,2.20
2022-10-08T22:15:53.944Z,2.77
2022-10-08T22:20:47.557Z,2.50
2022-10-08T22:25:42.207Z,2.40
2022-10-08T22:30:36.919Z,2.00
2022-10-08T22:35:33.727Z,2.23
2022-10-08T22:40:27.019Z,1.98
2022-10-08T22:45:21.628Z,2.40
2022-10-08T22:50:17.695Z,2.38
2022-10-08T22:55:11.619Z,2.03
2022-10-08T23:00:05.981Z,1.97
2022-10-08T23:05:00.643Z,1.70
2022-10-08T23:09:53.890Z,1.53
2022-10-08T23:14:47.238Z,1.87
2022-10-08T23:19:40.490Z,1.93
2022-10-08T23:24:35.228Z,2.00
2022-10-08T23:29:28.752Z,1.60
2022-10-08T23:34:22.365Z,1.50
2022-10-08T23:39:17.828Z,1.40
2022-10-08T23:44:13.709Z,1.80
2022-10-08T23:49:07.645Z,1.70
2022-10-08T23:54:02.125Z,1.70
2022-10-08T23:58:55.452Z,1.60
